sensor_id;sensor_type;location;lat;lon;timestamp;P1;durP1;ratioP1;P2;durP2;ratioP2
64018;SDS011;66942;52.138;5.216;2023-10-09T00:01:05;50.4;;;39.5;;
64018;SDS011;66942;52.138;5.216;2023-10-09T00:02:43;34.81;;;31.1;;
64018;SDS011;66942;52.138;5.216;2023-10-09T00:04:19;50.1;;;38.6;;
64018;SDS011;66942;52.138;5.216;2023-10-09T00:07:31;56.3;;;42.1;;
64018;SDS011;66942;52.138;5.216;2023-10-09T00:09:07;57.5;;;41.8;;
64018;SDS011;66942;52.138;5.216;2023-10-09T00:10:44;54.4;;;40.1;;
64018;SDS011;66942;52.138;5.216;2023-10-09T00:12:22;68.7;;;46.5;;
64018;SDS011;66942;52.138;5.216;2023-10-09T00:15:35;53.8;;;39.81;;
64018;SDS011;66942;52.138;5.216;2023-10-09T00:17:11;50.0;;;38.1;;
64018;SDS011;66942;52.138;5.216;2023-10-09T00:18:47;41.0;;;34.21;;
64018;SDS011;66942;52.138;5.216;2023-10-09T00:21:59;64.6;;;46.5;;
64018;SDS011;66942;52.138;5.216;2023-10-09T00:23:35;52.0;;;39.71;;
64018;SDS011;66942;52.138;5.216;2023-10-09T00:25:11;50.9;;;38.9;;
64018;SDS011;66942;52.138;5.216;2023-10-09T00:28:25;56.7;;;41.4;;
64018;SDS011;66942;52.138;5.216;2023-10-09T00:30:01;42.3;;;36.31;;
64018;SDS011;66942;52.138;5.216;2023-10-09T00:31:38;61.0;;;43.9;;
64018;SDS011;66942;52.138;5.216;2023-10-09T00:33:14;34.5;;;30.9;;
64018;SDS011;66942;52.138;5.216;2023-10-09T00:36:29;57.1;;;42.0;;
64018;SDS011;66942;52.138;5.216;2023-10-09T00:38:06;52.3;;;40.31;;
64018;SDS011;66942;52.138;5.216;2023-10-09T00:39:42;34.6;;;30.7;;
64018;SDS011;66942;52.138;5.216;2023-10-09T00:42:58;38.4;;;33.1;;
64018;SDS011;66942;52.138;5.216;2023-10-09T00:44:35;46.4;;;37.31;;
64018;SDS011;66942;52.138;5.216;2023-10-09T00:46:11;32.0;;;28.7;;
64018;SDS011;66942;52.138;5.216;2023-10-09T00:49:25;33.8;;;30.1;;
64018;SDS011;66942;52.138;5.216;2023-10-09T00:51:02;30.8;;;27.7;;
64018;SDS011;66942;52.138;5.216;2023-10-09T00:52:38;28.1;;;25.4;;
64018;SDS011;66942;52.138;5.216;2023-10-09T00:54:16;39.81;;;33.1;;
64018;SDS011;66942;52.138;5.216;2023-10-09T00:57:30;29.2;;;26.3;;
64018;SDS011;66942;52.138;5.216;2023-10-09T00:59:07;39.71;;;32.71;;
64018;SDS011;66942;52.138;5.216;2023-10-09T01:00:44;36.21;;;31.7;;
64018;SDS011;66942;52.138;5.216;2023-10-09T01:03:56;28.9;;;25.9;;
64018;SDS011;66942;52.138;5.216;2023-10-09T01:05:32;39.9;;;32.1;;
64018;SDS011;66942;52.138;5.216;2023-10-09T01:07:09;44.9;;;34.71;;
64018;SDS011;66942;52.138;5.216;2023-10-09T01:08:45;43.2;;;33.3;;
64018;SDS011;66942;52.138;5.216;2023-10-09T01:11:57;30.5;;;27.3;;
64018;SDS011;66942;52.138;5.216;2023-10-09T01:13:33;30.7;;;27.4;;
64018;SDS011;66942;52.138;5.216;2023-10-09T01:15:10;42.0;;;34.31;;
64018;SDS011;66942;52.138;5.216;2023-10-09T01:18:22;38.21;;;31.9;;
64018;SDS011;66942;52.138;5.216;2023-10-09T01:20:01;34.4;;;30.0;;
64018;SDS011;66942;52.138;5.216;2023-10-09T01:21:37;38.9;;;32.5;;
64018;SDS011;66942;52.138;5.216;2023-10-09T01:24:49;38.5;;;32.0;;
64018;SDS011;66942;52.138;5.216;2023-10-09T01:26:26;34.1;;;30.4;;
64018;SDS011;66942;52.138;5.216;2023-10-09T01:28:03;41.1;;;33.21;;
64018;SDS011;66942;52.138;5.216;2023-10-09T01:29:40;27.5;;;24.8;;
64018;SDS011;66942;52.138;5.216;2023-10-09T01:32:53;34.5;;;30.6;;
64018;SDS011;66942;52.138;5.216;2023-10-09T01:34:29;30.9;;;27.4;;
64018;SDS011;66942;52.138;5.216;2023-10-09T01:36:07;36.0;;;31.7;;
64018;SDS011;66942;52.138;5.216;2023-10-09T01:39:20;41.3;;;34.5;;
64018;SDS011;66942;52.138;5.216;2023-10-09T01:40:58;36.4;;;31.0;;
64018;SDS011;66942;52.138;5.216;2023-10-09T01:42:34;36.1;;;32.21;;
64018;SDS011;66942;52.138;5.216;2023-10-09T01:45:47;29.4;;;26.3;;
64018;SDS011;66942;52.138;5.216;2023-10-09T01:47:23;34.9;;;30.5;;
64018;SDS011;66942;52.138;5.216;2023-10-09T01:49:00;32.3;;;29.0;;
64018;SDS011;66942;52.138;5.216;2023-10-09T01:50:37;32.71;;;29.1;;
64018;SDS011;66942;52.138;5.216;2023-10-09T01:53:49;32.71;;;29.3;;
64018;SDS011;66942;52.138;5.216;2023-10-09T01:55:25;40.71;;;33.5;;
64018;SDS011;66942;52.138;5.216;2023-10-09T01:57:02;37.71;;;32.5;;
64018;SDS011;66942;52.138;5.216;2023-10-09T02:00:18;34.0;;;29.9;;
64018;SDS011;66942;52.138;5.216;2023-10-09T02:01:55;28.3;;;25.4;;
64018;SDS011;66942;52.138;5.216;2023-10-09T02:03:31;27.7;;;24.9;;
64018;SDS011;66942;52.138;5.216;2023-10-09T02:06:45;23.8;;;21.6;;
64018;SDS011;66942;52.138;5.216;2023-10-09T02:08:22;36.6;;;32.0;;
64018;SDS011;66942;52.138;5.216;2023-10-09T02:09:58;38.21;;;32.3;;
64018;SDS011;66942;52.138;5.216;2023-10-09T02:11:35;32.4;;;28.8;;
64018;SDS011;66942;52.138;5.216;2023-10-09T02:14:50;24.4;;;22.0;;
64018;SDS011;66942;52.138;5.216;2023-10-09T02:16:27;27.0;;;24.3;;
64018;SDS011;66942;52.138;5.216;2023-10-09T02:18:03;33.71;;;30.0;;
64018;SDS011;66942;52.138;5.216;2023-10-09T02:21:16;31.2;;;27.9;;
64018;SDS011;66942;52.138;5.216;2023-10-09T02:22:52;33.8;;;30.1;;
64018;SDS011;66942;52.138;5.216;2023-10-09T02:24:29;35.21;;;31.3;;
64018;SDS011;66942;52.138;5.216;2023-10-09T02:27:41;27.3;;;24.7;;
64018;SDS011;66942;52.138;5.216;2023-10-09T02:29:17;32.6;;;28.8;;
64018;SDS011;66942;52.138;5.216;2023-10-09T02:30:53;30.7;;;27.4;;
64018;SDS011;66942;52.138;5.216;2023-10-09T02:32:29;31.2;;;27.9;;
64018;SDS011;66942;52.138;5.216;2023-10-09T02:35:42;29.5;;;26.5;;
64018;SDS011;66942;52.138;5.216;2023-10-09T02:37:18;25.4;;;22.7;;
64018;SDS011;66942;52.138;5.216;2023-10-09T02:38:55;28.0;;;24.9;;
64018;SDS011;66942;52.138;5.216;2023-10-09T02:42:08;23.2;;;20.9;;
64018;SDS011;66942;52.138;5.216;2023-10-09T02:43:44;31.0;;;27.8;;
64018;SDS011;66942;52.138;5.216;2023-10-09T02:45:20;29.2;;;26.1;;
64018;SDS011;66942;52.138;5.216;2023-10-09T02:48:32;27.7;;;24.9;;
64018;SDS011;66942;52.138;5.216;2023-10-09T02:50:08;28.7;;;25.6;;
64018;SDS011;66942;52.138;5.216;2023-10-09T02:51:44;29.4;;;26.3;;
64018;SDS011;66942;52.138;5.216;2023-10-09T02:53:20;28.3;;;25.3;;
64018;SDS011;66942;52.138;5.216;2023-10-09T02:56:34;29.7;;;26.5;;
64018;SDS011;66942;52.138;5.216;2023-10-09T02:58:11;29.6;;;26.5;;
64018;SDS011;66942;52.138;5.216;2023-10-09T02:59:47;28.6;;;25.7;;
64018;SDS011;66942;52.138;5.216;2023-10-09T03:03:00;27.0;;;24.1;;
64018;SDS011;66942;52.138;5.216;2023-10-09T03:04:36;26.6;;;23.9;;
64018;SDS011;66942;52.138;5.216;2023-10-09T03:06:12;20.5;;;18.5;;
64018;SDS011;66942;52.138;5.216;2023-10-09T03:09:25;29.8;;;25.0;;
64018;SDS011;66942;52.138;5.216;2023-10-09T03:11:02;23.9;;;21.4;;
64018;SDS011;66942;52.138;5.216;2023-10-09T03:12:39;22.4;;;20.2;;
64018;SDS011;66942;52.138;5.216;2023-10-09T03:14:15;22.8;;;20.6;;
64018;SDS011;66942;52.138;5.216;2023-10-09T03:17:27;20.6;;;18.5;;
64018;SDS011;66942;52.138;5.216;2023-10-09T03:19:03;21.9;;;19.7;;
64018;SDS011;66942;52.138;5.216;2023-10-09T03:20:39;17.5;;;16.0;;
64018;SDS011;66942;52.138;5.216;2023-10-09T03:23:51;25.0;;;21.2;;
64018;SDS011;66942;52.138;5.216;2023-10-09T03:25:27;21.8;;;19.7;;
64018;SDS011;66942;52.138;5.216;2023-10-09T03:27:03;22.6;;;20.41;;
64018;SDS011;66942;52.138;5.216;2023-10-09T03:30:17;22.5;;;20.2;;
64018;SDS011;66942;52.138;5.216;2023-10-09T03:31:53;23.1;;;20.6;;
64018;SDS011;66942;52.138;5.216;2023-10-09T03:33:29;21.6;;;19.5;;
64018;SDS011;66942;52.138;5.216;2023-10-09T03:36:42;19.5;;;17.8;;
64018;SDS011;66942;52.138;5.216;2023-10-09T03:38:18;19.3;;;17.5;;
64018;SDS011;66942;52.138;5.216;2023-10-09T03:39:53;19.3;;;17.3;;
64018;SDS011;66942;52.138;5.216;2023-10-09T03:41:29;21.4;;;19.3;;
64018;SDS011;66942;52.138;5.216;2023-10-09T03:44:41;17.7;;;16.11;;
64018;SDS011;66942;52.138;5.216;2023-10-09T03:46:18;19.5;;;17.5;;
64018;SDS011;66942;52.138;5.216;2023-10-09T03:47:54;19.2;;;17.3;;
64018;SDS011;66942;52.138;5.216;2023-10-09T03:51:08;18.3;;;16.3;;
64018;SDS011;66942;52.138;5.216;2023-10-09T03:52:45;17.2;;;15.5;;
64018;SDS011;66942;52.138;5.216;2023-10-09T03:54:21;16.8;;;15.2;;
64018;SDS011;66942;52.138;5.216;2023-10-09T03:57:33;17.8;;;16.0;;
64018;SDS011;66942;52.138;5.216;2023-10-09T03:59:09;19.8;;;17.5;;
64018;SDS011;66942;52.138;5.216;2023-10-09T04:00:45;19.61;;;17.61;;
64018;SDS011;66942;52.138;5.216;2023-10-09T04:02:21;21.3;;;18.2;;
64018;SDS011;66942;52.138;5.216;2023-10-09T04:05:37;16.9;;;15.2;;
64018;SDS011;66942;52.138;5.216;2023-10-09T04:07:13;18.2;;;16.4;;
64018;SDS011;66942;52.138;5.216;2023-10-09T04:08:49;16.0;;;14.5;;
64018;SDS011;66942;52.138;5.216;2023-10-09T04:12:01;17.91;;;16.2;;
64018;SDS011;66942;52.138;5.216;2023-10-09T04:13:37;17.7;;;15.9;;
64018;SDS011;66942;52.138;5.216;2023-10-09T04:15:13;14.7;;;13.4;;
64018;SDS011;66942;52.138;5.216;2023-10-09T04:18:25;13.3;;;12.2;;
64018;SDS011;66942;52.138;5.216;2023-10-09T04:20:02;17.5;;;15.7;;
64018;SDS011;66942;52.138;5.216;2023-10-09T04:21:40;17.41;;;15.8;;
64018;SDS011;66942;52.138;5.216;2023-10-09T04:24:52;20.2;;;17.91;;
64018;SDS011;66942;52.138;5.216;2023-10-09T04:26:28;15.5;;;14.1;;
64018;SDS011;66942;52.138;5.216;2023-10-09T04:28:04;16.8;;;15.2;;
64018;SDS011;66942;52.138;5.216;2023-10-09T04:29:40;19.5;;;15.3;;
64018;SDS011;66942;52.138;5.216;2023-10-09T04:32:53;16.7;;;15.1;;
64018;SDS011;66942;52.138;5.216;2023-10-09T04:34:28;22.2;;;16.3;;
64018;SDS011;66942;52.138;5.216;2023-10-09T04:36:05;15.3;;;13.7;;
64018;SDS011;66942;52.138;5.216;2023-10-09T04:39:19;15.2;;;13.7;;
64018;SDS011;66942;52.138;5.216;2023-10-09T04:40:55;16.7;;;14.9;;
64018;SDS011;66942;52.138;5.216;2023-10-09T04:42:31;17.61;;;15.6;;
64018;SDS011;66942;52.138;5.216;2023-10-09T04:45:42;14.1;;;12.9;;
64018;SDS011;66942;52.138;5.216;2023-10-09T04:47:18;15.6;;;14.1;;
64018;SDS011;66942;52.138;5.216;2023-10-09T04:48:54;15.9;;;14.3;;
64018;SDS011;66942;52.138;5.216;2023-10-09T04:50:30;19.3;;;16.61;;
64018;SDS011;66942;52.138;5.216;2023-10-09T04:53:42;18.2;;;16.4;;
64018;SDS011;66942;52.138;5.216;2023-10-09T04:55:18;12.6;;;11.5;;
64018;SDS011;66942;52.138;5.216;2023-10-09T04:56:54;17.0;;;15.3;;
64018;SDS011;66942;52.138;5.216;2023-10-09T05:00:07;17.2;;;15.4;;
64018;SDS011;66942;52.138;5.216;2023-10-09T05:01:44;21.1;;;15.8;;
64018;SDS011;66942;52.138;5.216;2023-10-09T05:03:20;19.91;;;17.11;;
64018;SDS011;66942;52.138;5.216;2023-10-09T05:06:33;19.3;;;16.5;;
64018;SDS011;66942;52.138;5.216;2023-10-09T05:08:10;14.3;;;12.9;;
64018;SDS011;66942;52.138;5.216;2023-10-09T05:09:47;16.9;;;15.3;;
64018;SDS011;66942;52.138;5.216;2023-10-09T05:12:59;17.0;;;15.3;;
64018;SDS011;66942;52.138;5.216;2023-10-09T05:14:35;14.1;;;12.8;;
64018;SDS011;66942;52.138;5.216;2023-10-09T05:16:12;17.11;;;14.6;;
64018;SDS011;66942;52.138;5.216;2023-10-09T05:17:50;13.2;;;11.8;;
64018;SDS011;66942;52.138;5.216;2023-10-09T05:21:03;15.4;;;13.8;;
64018;SDS011;66942;52.138;5.216;2023-10-09T05:22:39;15.8;;;14.3;;
64018;SDS011;66942;52.138;5.216;2023-10-09T05:24:15;14.3;;;13.0;;
64018;SDS011;66942;52.138;5.216;2023-10-09T05:27:27;16.11;;;14.4;;
64018;SDS011;66942;52.138;5.216;2023-10-09T05:29:03;15.0;;;13.5;;
64018;SDS011;66942;52.138;5.216;2023-10-09T05:30:39;15.1;;;13.6;;
64018;SDS011;66942;52.138;5.216;2023-10-09T05:33:51;16.4;;;14.8;;
64018;SDS011;66942;52.138;5.216;2023-10-09T05:35:27;13.8;;;12.5;;
64018;SDS011;66942;52.138;5.216;2023-10-09T05:37:04;16.8;;;14.4;;
64018;SDS011;66942;52.138;5.216;2023-10-09T05:38:41;16.5;;;14.0;;
64018;SDS011;66942;52.138;5.216;2023-10-09T05:41:53;13.6;;;12.2;;
64018;SDS011;66942;52.138;5.216;2023-10-09T05:43:29;14.9;;;13.4;;
64018;SDS011;66942;52.138;5.216;2023-10-09T05:45:06;12.8;;;11.5;;
64018;SDS011;66942;52.138;5.216;2023-10-09T05:48:19;16.5;;;14.9;;
64018;SDS011;66942;52.138;5.216;2023-10-09T05:49:55;14.1;;;12.6;;
64018;SDS011;66942;52.138;5.216;2023-10-09T05:51:32;16.2;;;13.6;;
64018;SDS011;66942;52.138;5.216;2023-10-09T05:54:44;14.2;;;12.7;;
64018;SDS011;66942;52.138;5.216;2023-10-09T05:56:20;13.3;;;12.0;;
64018;SDS011;66942;52.138;5.216;2023-10-09T05:57:56;13.0;;;11.6;;
64018;SDS011;66942;52.138;5.216;2023-10-09T05:59:32;14.1;;;12.7;;
64018;SDS011;66942;52.138;5.216;2023-10-09T06:02:44;13.9;;;12.0;;
64018;SDS011;66942;52.138;5.216;2023-10-09T06:04:20;13.6;;;11.9;;
64018;SDS011;66942;52.138;5.216;2023-10-09T06:05:56;14.3;;;11.6;;
64018;SDS011;66942;52.138;5.216;2023-10-09T06:09:09;13.0;;;11.7;;
64018;SDS011;66942;52.138;5.216;2023-10-09T06:10:46;14.4;;;12.0;;
64018;SDS011;66942;52.138;5.216;2023-10-09T06:12:22;10.6;;;9.5;;
64018;SDS011;66942;52.138;5.216;2023-10-09T06:15:37;11.4;;;10.3;;
64018;SDS011;66942;52.138;5.216;2023-10-09T06:17:13;13.5;;;11.6;;
64018;SDS011;66942;52.138;5.216;2023-10-09T06:18:49;10.9;;;9.81;;
64018;SDS011;66942;52.138;5.216;2023-10-09T06:22:02;12.1;;;11.0;;
64018;SDS011;66942;52.138;5.216;2023-10-09T06:23:38;13.5;;;10.8;;
64018;SDS011;66942;52.138;5.216;2023-10-09T06:25:14;11.4;;;10.21;;
64018;SDS011;66942;52.138;5.216;2023-10-09T06:26:50;11.4;;;10.21;;
64018;SDS011;66942;52.138;5.216;2023-10-09T06:30:02;13.2;;;11.8;;
64018;SDS011;66942;52.138;5.216;2023-10-09T06:31:38;16.4;;;12.3;;
64018;SDS011;66942;52.138;5.216;2023-10-09T06:33:14;14.6;;;12.2;;
64018;SDS011;66942;52.138;5.216;2023-10-09T06:36:29;13.6;;;12.2;;
64018;SDS011;66942;52.138;5.216;2023-10-09T06:38:05;15.2;;;12.4;;
64018;SDS011;66942;52.138;5.216;2023-10-09T06:39:41;12.9;;;11.0;;
64018;SDS011;66942;52.138;5.216;2023-10-09T06:42:53;11.1;;;9.21;;
64018;SDS011;66942;52.138;5.216;2023-10-09T06:44:29;13.4;;;11.5;;
64018;SDS011;66942;52.138;5.216;2023-10-09T06:46:05;13.4;;;12.0;;
64018;SDS011;66942;52.138;5.216;2023-10-09T06:47:42;12.0;;;10.8;;
64018;SDS011;66942;52.138;5.216;2023-10-09T06:51:01;13.0;;;11.6;;
64018;SDS011;66942;52.138;5.216;2023-10-09T06:52:39;13.6;;;11.7;;
64018;SDS011;66942;52.138;5.216;2023-10-09T06:54:15;12.5;;;11.3;;
64018;SDS011;66942;52.138;5.216;2023-10-09T06:57:27;11.3;;;10.21;;
64018;SDS011;66942;52.138;5.216;2023-10-09T06:59:04;15.2;;;12.1;;
64018;SDS011;66942;52.138;5.216;2023-10-09T07:00:40;11.7;;;10.5;;
64018;SDS011;66942;52.138;5.216;2023-10-09T07:02:17;13.5;;;12.0;;
64018;SDS011;66942;52.138;5.216;2023-10-09T07:05:29;12.7;;;11.3;;
64018;SDS011;66942;52.138;5.216;2023-10-09T07:07:06;15.0;;;11.5;;
64018;SDS011;66942;52.138;5.216;2023-10-09T07:08:43;15.0;;;12.1;;
64018;SDS011;66942;52.138;5.216;2023-10-09T07:11:55;14.3;;;11.7;;
64018;SDS011;66942;52.138;5.216;2023-10-09T07:13:31;11.0;;;9.31;;
64018;SDS011;66942;52.138;5.216;2023-10-09T07:15:08;15.5;;;14.1;;
64018;SDS011;66942;52.138;5.216;2023-10-09T07:18:20;13.2;;;11.7;;
64018;SDS011;66942;52.138;5.216;2023-10-09T07:19:56;14.5;;;11.4;;
64018;SDS011;66942;52.138;5.216;2023-10-09T07:21:33;17.5;;;12.7;;
64018;SDS011;66942;52.138;5.216;2023-10-09T07:24:45;12.6;;;10.9;;
64018;SDS011;66942;52.138;5.216;2023-10-09T07:26:21;14.0;;;11.2;;
64018;SDS011;66942;52.138;5.216;2023-10-09T07:27:57;13.7;;;11.9;;
64018;SDS011;66942;52.138;5.216;2023-10-09T07:29:33;14.2;;;12.1;;
64018;SDS011;66942;52.138;5.216;2023-10-09T07:32:53;13.7;;;10.9;;
64018;SDS011;66942;52.138;5.216;2023-10-09T07:34:29;12.0;;;10.8;;
64018;SDS011;66942;52.138;5.216;2023-10-09T07:36:06;15.2;;;12.2;;
64018;SDS011;66942;52.138;5.216;2023-10-09T07:39:18;13.0;;;11.2;;
64018;SDS011;66942;52.138;5.216;2023-10-09T07:40:54;13.1;;;11.0;;
64018;SDS011;66942;52.138;5.216;2023-10-09T07:42:31;12.8;;;11.1;;
64018;SDS011;66942;52.138;5.216;2023-10-09T07:44:07;10.6;;;9.5;;
64018;SDS011;66942;52.138;5.216;2023-10-09T07:47:19;10.5;;;9.21;;
64018;SDS011;66942;52.138;5.216;2023-10-09T07:48:56;9.81;;;9.0;;
64018;SDS011;66942;52.138;5.216;2023-10-09T07:50:35;11.4;;;10.21;;
64018;SDS011;66942;52.138;5.216;2023-10-09T07:53:50;11.7;;;9.9;;
64018;SDS011;66942;52.138;5.216;2023-10-09T07:55:27;13.9;;;10.6;;
64018;SDS011;66942;52.138;5.216;2023-10-09T07:57:03;12.8;;;11.5;;
64018;SDS011;66942;52.138;5.216;2023-10-09T08:00:15;15.0;;;11.7;;
64018;SDS011;66942;52.138;5.216;2023-10-09T08:01:51;12.6;;;11.3;;
64018;SDS011;66942;52.138;5.216;2023-10-09T08:03:27;14.3;;;11.1;;
64018;SDS011;66942;52.138;5.216;2023-10-09T08:05:04;12.7;;;11.4;;
64018;SDS011;66942;52.138;5.216;2023-10-09T08:08:18;14.2;;;11.5;;
64018;SDS011;66942;52.138;5.216;2023-10-09T08:09:54;10.4;;;9.31;;
64018;SDS011;66942;52.138;5.216;2023-10-09T08:11:30;12.4;;;9.81;;
64018;SDS011;66942;52.138;5.216;2023-10-09T08:14:43;12.7;;;11.2;;
64018;SDS011;66942;52.138;5.216;2023-10-09T08:16:19;12.5;;;10.9;;
64018;SDS011;66942;52.138;5.216;2023-10-09T08:17:56;15.7;;;11.6;;
64018;SDS011;66942;52.138;5.216;2023-10-09T08:21:09;13.4;;;10.9;;
64018;SDS011;66942;52.138;5.216;2023-10-09T08:22:45;14.9;;;12.0;;
64018;SDS011;66942;52.138;5.216;2023-10-09T08:24:21;11.8;;;10.6;;
64018;SDS011;66942;52.138;5.216;2023-10-09T08:27:35;11.9;;;10.7;;
64018;SDS011;66942;52.138;5.216;2023-10-09T08:29:11;11.7;;;10.5;;
64018;SDS011;66942;52.138;5.216;2023-10-09T08:30:47;10.4;;;9.4;;
64018;SDS011;66942;52.138;5.216;2023-10-09T08:32:23;10.9;;;9.71;;
64018;SDS011;66942;52.138;5.216;2023-10-09T08:35:36;12.2;;;10.4;;
64018;SDS011;66942;52.138;5.216;2023-10-09T08:37:14;11.8;;;10.4;;
64018;SDS011;66942;52.138;5.216;2023-10-09T08:38:50;11.5;;;10.0;;
64018;SDS011;66942;52.138;5.216;2023-10-09T08:42:07;10.7;;;9.6;;
64018;SDS011;66942;52.138;5.216;2023-10-09T08:43:47;12.4;;;10.4;;
64018;SDS011;66942;52.138;5.216;2023-10-09T08:45:25;11.9;;;9.81;;
64018;SDS011;66942;52.138;5.216;2023-10-09T08:47:01;12.5;;;9.81;;
64018;SDS011;66942;52.138;5.216;2023-10-09T08:50:13;12.6;;;9.31;;
64018;SDS011;66942;52.138;5.216;2023-10-09T08:51:50;12.0;;;9.1;;
64018;SDS011;66942;52.138;5.216;2023-10-09T08:53:26;10.9;;;9.4;;
64018;SDS011;66942;52.138;5.216;2023-10-09T08:56:38;14.4;;;10.0;;
64018;SDS011;66942;52.138;5.216;2023-10-09T08:58:14;11.1;;;9.1;;
64018;SDS011;66942;52.138;5.216;2023-10-09T08:59:51;12.6;;;9.71;;
64018;SDS011;66942;52.138;5.216;2023-10-09T09:03:04;9.71;;;8.81;;
64018;SDS011;66942;52.138;5.216;2023-10-09T09:04:40;14.7;;;9.0;;
64018;SDS011;66942;52.138;5.216;2023-10-09T09:06:17;8.9;;;8.0;;
64018;SDS011;66942;52.138;5.216;2023-10-09T09:07:55;10.1;;;7.8;;
64018;SDS011;66942;52.138;5.216;2023-10-09T09:11:08;11.0;;;9.0;;
64018;SDS011;66942;52.138;5.216;2023-10-09T09:12:45;10.7;;;8.0;;
64018;SDS011;66942;52.138;5.216;2023-10-09T09:14:24;13.6;;;8.81;;
64018;SDS011;66942;52.138;5.216;2023-10-09T09:16:15;11.1;;;8.0;;
64018;SDS011;66942;52.138;5.216;2023-10-09T09:19:39;11.8;;;8.31;;
64018;SDS011;66942;52.138;5.216;2023-10-09T09:21:17;10.21;;;8.4;;
64018;SDS011;66942;52.138;5.216;2023-10-09T09:22:54;8.6;;;7.7;;
64018;SDS011;66942;52.138;5.216;2023-10-09T09:26:07;9.9;;;8.0;;
64018;SDS011;66942;52.138;5.216;2023-10-09T09:27:43;10.1;;;7.7;;
64018;SDS011;66942;52.138;5.216;2023-10-09T09:29:20;9.1;;;7.3;;
64018;SDS011;66942;52.138;5.216;2023-10-09T09:30:59;10.1;;;8.2;;
64018;SDS011;66942;52.138;5.216;2023-10-09T09:34:18;11.4;;;8.0;;
64018;SDS011;66942;52.138;5.216;2023-10-09T09:35:56;10.3;;;8.4;;
64018;SDS011;66942;52.138;5.216;2023-10-09T09:37:34;8.31;;;7.5;;
64018;SDS011;66942;52.138;5.216;2023-10-09T09:40:46;9.21;;;7.9;;
64018;SDS011;66942;52.138;5.216;2023-10-09T09:42:23;10.0;;;8.2;;
64018;SDS011;66942;52.138;5.216;2023-10-09T09:44:00;11.2;;;8.5;;
64018;SDS011;66942;52.138;5.216;2023-10-09T09:45:36;9.31;;;7.6;;
64018;SDS011;66942;52.138;5.216;2023-10-09T09:48:50;10.8;;;7.5;;
64018;SDS011;66942;52.138;5.216;2023-10-09T09:50:27;11.5;;;8.2;;
64018;SDS011;66942;52.138;5.216;2023-10-09T09:52:04;8.0;;;7.2;;
64018;SDS011;66942;52.138;5.216;2023-10-09T09:55:16;10.21;;;7.5;;
64018;SDS011;66942;52.138;5.216;2023-10-09T09:56:52;8.9;;;7.6;;
64018;SDS011;66942;52.138;5.216;2023-10-09T09:58:30;8.81;;;7.6;;
64018;SDS011;66942;52.138;5.216;2023-10-09T10:00:08;9.81;;;7.4;;
64018;SDS011;66942;52.138;5.216;2023-10-09T10:03:33;9.0;;;7.2;;
64018;SDS011;66942;52.138;5.216;2023-10-09T10:05:14;9.9;;;7.3;;
64018;SDS011;66942;52.138;5.216;2023-10-09T10:06:52;8.9;;;7.2;;
64018;SDS011;66942;52.138;5.216;2023-10-09T10:08:31;8.6;;;7.4;;
64018;SDS011;66942;52.138;5.216;2023-10-09T10:12:10;10.8;;;7.2;;
64018;SDS011;66942;52.138;5.216;2023-10-09T10:13:54;11.4;;;7.7;;
64018;SDS011;66942;52.138;5.216;2023-10-09T10:16:07;8.4;;;6.5;;
64018;SDS011;66942;52.138;5.216;2023-10-09T10:18:06;8.5;;;7.6;;
64018;SDS011;66942;52.138;5.216;2023-10-09T10:20:02;7.6;;;6.4;;
64018;SDS011;66942;52.138;5.216;2023-10-09T10:21:40;9.4;;;6.8;;
64018;SDS011;66942;52.138;5.216;2023-10-09T10:23:17;9.4;;;7.0;;
64018;SDS011;66942;52.138;5.216;2023-10-09T10:26:31;8.0;;;7.2;;
64018;SDS011;66942;52.138;5.216;2023-10-09T10:28:15;8.71;;;6.4;;
64018;SDS011;66942;52.138;5.216;2023-10-09T10:30:26;7.4;;;6.7;;
64018;SDS011;66942;52.138;5.216;2023-10-09T10:32:06;9.71;;;7.0;;
64018;SDS011;66942;52.138;5.216;2023-10-09T10:34:17;9.4;;;6.6;;
64018;SDS011;66942;52.138;5.216;2023-10-09T10:35:54;9.5;;;7.0;;
64018;SDS011;66942;52.138;5.216;2023-10-09T10:39:12;7.6;;;6.7;;
64018;SDS011;66942;52.138;5.216;2023-10-09T10:40:48;7.7;;;6.9;;
64018;SDS011;66942;52.138;5.216;2023-10-09T10:42:25;8.0;;;7.2;;
64018;SDS011;66942;52.138;5.216;2023-10-09T10:45:38;9.9;;;6.9;;
64018;SDS011;66942;52.138;5.216;2023-10-09T10:47:15;7.7;;;6.8;;
64018;SDS011;66942;52.138;5.216;2023-10-09T10:49:04;8.9;;;7.2;;
64018;SDS011;66942;52.138;5.216;2023-10-09T10:50:41;10.7;;;7.0;;
64018;SDS011;66942;52.138;5.216;2023-10-09T10:53:56;9.0;;;6.8;;
64018;SDS011;66942;52.138;5.216;2023-10-09T10:55:32;7.4;;;6.0;;
64018;SDS011;66942;52.138;5.216;2023-10-09T10:57:13;9.9;;;6.9;;
64018;SDS011;66942;52.138;5.216;2023-10-09T10:58:52;8.4;;;7.5;;
64018;SDS011;66942;52.138;5.216;2023-10-09T11:02:09;7.3;;;6.3;;
64018;SDS011;66942;52.138;5.216;2023-10-09T11:03:46;8.4;;;6.2;;
64018;SDS011;66942;52.138;5.216;2023-10-09T11:05:24;8.9;;;6.8;;
64018;SDS011;66942;52.138;5.216;2023-10-09T11:08:40;9.6;;;6.8;;
64018;SDS011;66942;52.138;5.216;2023-10-09T11:10:21;11.9;;;6.5;;
64018;SDS011;66942;52.138;5.216;2023-10-09T11:12:03;8.4;;;6.9;;
64018;SDS011;66942;52.138;5.216;2023-10-09T11:13:41;8.2;;;6.4;;
64018;SDS011;66942;52.138;5.216;2023-10-09T11:17:07;8.31;;;6.6;;
64018;SDS011;66942;52.138;5.216;2023-10-09T11:18:43;7.3;;;6.6;;
64018;SDS011;66942;52.138;5.216;2023-10-09T11:20:19;8.5;;;7.0;;
64018;SDS011;66942;52.138;5.216;2023-10-09T11:21:55;8.31;;;6.4;;
64018;SDS011;66942;52.138;5.216;2023-10-09T11:25:09;10.7;;;6.3;;
64018;SDS011;66942;52.138;5.216;2023-10-09T11:26:46;7.6;;;6.2;;
64018;SDS011;66942;52.138;5.216;2023-10-09T11:28:23;10.4;;;6.3;;
64018;SDS011;66942;52.138;5.216;2023-10-09T11:31:36;9.5;;;6.6;;
64018;SDS011;66942;52.138;5.216;2023-10-09T11:33:12;9.1;;;5.8;;
64018;SDS011;66942;52.138;5.216;2023-10-09T11:34:49;7.3;;;6.6;;
64018;SDS011;66942;52.138;5.216;2023-10-09T11:36:44;9.0;;;7.1;;
64018;SDS011;66942;52.138;5.216;2023-10-09T11:39:56;7.8;;;6.3;;
64018;SDS011;66942;52.138;5.216;2023-10-09T11:41:38;11.1;;;6.4;;
64018;SDS011;66942;52.138;5.216;2023-10-09T11:43:15;10.5;;;6.3;;
64018;SDS011;66942;52.138;5.216;2023-10-09T11:44:51;7.9;;;6.2;;
64018;SDS011;66942;52.138;5.216;2023-10-09T11:48:15;7.9;;;6.2;;
64018;SDS011;66942;52.138;5.216;2023-10-09T11:49:54;7.9;;;6.2;;
64018;SDS011;66942;52.138;5.216;2023-10-09T11:51:31;8.0;;;6.0;;
64018;SDS011;66942;52.138;5.216;2023-10-09T11:53:07;8.81;;;6.1;;
64018;SDS011;66942;52.138;5.216;2023-10-09T11:56:21;10.7;;;6.6;;
64018;SDS011;66942;52.138;5.216;2023-10-09T11:57:57;8.1;;;6.2;;
64018;SDS011;66942;52.138;5.216;2023-10-09T11:59:34;7.9;;;5.8;;
64018;SDS011;66942;52.138;5.216;2023-10-09T12:02:49;8.2;;;6.4;;
64018;SDS011;66942;52.138;5.216;2023-10-09T12:04:25;9.5;;;6.4;;
64018;SDS011;66942;52.138;5.216;2023-10-09T12:06:01;9.21;;;6.5;;
64018;SDS011;66942;52.138;5.216;2023-10-09T12:09:15;7.6;;;6.1;;
64018;SDS011;66942;52.138;5.216;2023-10-09T12:10:51;10.0;;;6.4;;
64018;SDS011;66942;52.138;5.216;2023-10-09T12:12:27;8.9;;;5.8;;
64018;SDS011;66942;52.138;5.216;2023-10-09T12:14:03;10.0;;;6.3;;
64018;SDS011;66942;52.138;5.216;2023-10-09T12:17:16;9.6;;;6.2;;
64018;SDS011;66942;52.138;5.216;2023-10-09T12:18:52;6.3;;;5.5;;
64018;SDS011;66942;52.138;5.216;2023-10-09T12:20:28;9.4;;;6.0;;
64018;SDS011;66942;52.138;5.216;2023-10-09T12:23:42;9.4;;;6.1;;
64018;SDS011;66942;52.138;5.216;2023-10-09T12:25:18;9.6;;;5.5;;
64018;SDS011;66942;52.138;5.216;2023-10-09T12:26:54;9.31;;;5.9;;
64018;SDS011;66942;52.138;5.216;2023-10-09T12:30:07;8.5;;;5.9;;
64018;SDS011;66942;52.138;5.216;2023-10-09T12:31:43;10.0;;;6.3;;
64018;SDS011;66942;52.138;5.216;2023-10-09T12:33:20;9.1;;;6.5;;
64018;SDS011;66942;52.138;5.216;2023-10-09T12:34:57;8.1;;;6.1;;
64018;SDS011;66942;52.138;5.216;2023-10-09T12:38:09;9.21;;;6.7;;
64018;SDS011;66942;52.138;5.216;2023-10-09T12:39:45;10.8;;;6.9;;